createdAt,value
2023-05-14T00:00:51.831Z,219.53
2023-05-14T00:01:51.933Z,219.32
2023-05-14T00:02:52.120Z,222.13
2023-05-14T00:03:52.208Z,220.05
2023-05-14T00:04:52.091Z,219.96
2023-05-14T00:05:52.152Z,216.63
2023-05-14T00:06:52.222Z,219.32
2023-05-14T00:07:52.271Z,219.41
2023-05-14T00:08:52.298Z,221.24
2023-05-14T00:09:52.361Z,218.37
2023-05-14T00:10:52.432Z,214.90
2023-05-14T00:11:52.448Z,212.99
2023-05-14T00:12:52.496Z,216.54
2023-05-14T00:13:52.539Z,215.88
2023-05-14T00:14:52.597Z,212.80
2023-05-14T00:15:52.699Z,214.32
2023-05-14T00:16:52.685Z,214.21
2023-05-14T00:17:52.764Z,212.77
2023-05-14T00:18:52.811Z,213.85
2023-05-14T00:19:52.833Z,213.36
2023-05-14T00:20:52.875Z,212.41
2023-05-14T00:21:52.921Z,212.53
2023-05-14T00:22:52.959Z,210.94
2023-05-14T00:23:53.018Z,210.24
2023-05-14T00:24:53.051Z,206.98
2023-05-14T00:25:53.128Z,207.97
2023-05-14T00:26:53.144Z,209.02
2023-05-14T00:27:53.203Z,211.53
2023-05-14T00:28:53.224Z,206.79
2023-05-14T00:29:53.286Z,210.32
2023-05-14T00:30:53.435Z,207.64
2023-05-14T00:31:53.379Z,208.34
2023-05-14T00:32:53.419Z,205.98
2023-05-14T00:33:53.433Z,204.23
2023-05-14T00:34:53.456Z,206.03
2023-05-14T00:35:53.470Z,205.69
2023-05-14T00:36:53.508Z,203.79
2023-05-14T00:37:53.542Z,207.22
2023-05-14T00:38:53.545Z,209.07
2023-05-14T00:39:53.592Z,206.36
2023-05-14T00:40:53.623Z,209.28
2023-05-14T00:41:53.660Z,205.78
2023-05-14T00:42:53.704Z,205.60
2023-05-14T00:43:53.740Z,205.28
2023-05-14T00:44:53.775Z,202.53
2023-05-14T00:45:53.838Z,205.73
2023-05-14T00:46:53.857Z,205.62
2023-05-14T00:47:53.916Z,204.63
2023-05-14T00:48:53.915Z,200.83
2023-05-14T00:49:53.952Z,203.10
2023-05-14T00:50:53.971Z,201.69
2023-05-14T00:51:54.004Z,200.83
2023-05-14T00:52:54.002Z,199.66
2023-05-14T00:53:54.034Z,200.25
2023-05-14T00:54:54.053Z,198.41
2023-05-14T00:55:54.058Z,197.71
2023-05-14T00:56:54.065Z,195.70
2023-05-14T00:57:54.085Z,197.83
2023-05-14T00:58:54.070Z,199.52
2023-05-14T00:59:54.069Z,197.22
2023-05-14T01:00:54.108Z,197.86
2023-05-14T01:01:54.085Z,198.24
2023-05-14T01:02:54.195Z,197.23
2023-05-14T01:03:54.151Z,199.09
2023-05-14T01:04:54.104Z,194.76
2023-05-14T01:05:54.120Z,195.26
2023-05-14T01:06:54.138Z,196.16
2023-05-14T01:07:54.132Z,195.29
2023-05-14T01:08:54.143Z,196.47
2023-05-14T01:09:54.141Z,194.07
2023-05-14T01:10:54.131Z,198.34
2023-05-14T01:11:54.130Z,195.69
2023-05-14T01:12:54.151Z,197.48
2023-05-14T01:13:54.137Z,193.91
2023-05-14T01:14:54.194Z,198.21
2023-05-14T01:15:54.149Z,192.26
2023-05-14T01:16:54.203Z,194.20
2023-05-14T01:17:54.247Z,193.93
2023-05-14T01:18:54.192Z,195.28
2023-05-14T01:19:54.174Z,198.00
2023-05-14T01:20:54.168Z,193.86
2023-05-14T01:21:54.149Z,191.91
2023-05-14T01:22:54.166Z,193.08
2023-05-14T01:23:54.203Z,192.12
2023-05-14T01:24:54.183Z,193.78
2023-05-14T01:25:54.210Z,188.00
2023-05-14T01:26:54.195Z,194.47
2023-05-14T01:27:54.232Z,192.76
2023-05-14T01:28:54.243Z,192.58
2023-05-14T01:29:54.267Z,191.74
2023-05-14T01:30:54.305Z,190.52
2023-05-14T01:31:54.372Z,188.33
2023-05-14T01:32:54.351Z,192.73
2023-05-14T01:33:54.325Z,189.73
2023-05-14T01:34:54.334Z,190.97
2023-05-14T01:35:54.314Z,189.59
2023-05-14T01:36:54.310Z,189.13
2023-05-14T01:37:54.308Z,188.68
2023-05-14T01:38:54.322Z,189.53
2023-05-14T01:39:54.368Z,189.70
2023-05-14T01:40:54.335Z,191.32
2023-05-14T01:41:54.308Z,192.75
2023-05-14T01:42:54.334Z,189.54
2023-05-14T01:43:54.316Z,191.15
2023-05-14T01:44:54.320Z,191.42
2023-05-14T01:45:54.456Z,191.18
2023-05-14T01:46:54.317Z,189.12
2023-05-14T01:47:54.412Z,190.59
2023-05-14T01:48:54.327Z,189.77
2023-05-14T01:49:54.324Z,190.73
2023-05-14T01:50:54.328Z,191.43
2023-05-14T01:51:54.329Z,191.81
2023-05-14T01:52:54.307Z,190.11
2023-05-14T01:53:54.320Z,193.65
2023-05-14T01:54:54.317Z,190.66
2023-05-14T01:55:54.305Z,187.48
2023-05-14T01:56:54.295Z,191.40
2023-05-14T01:57:54.314Z,187.03
2023-05-14T01:58:54.318Z,187.60
2023-05-14T01:59:54.316Z,185.03
2023-05-14T02:00:54.320Z,188.21
2023-05-14T02:01:54.389Z,188.89
2023-05-14T02:02:54.374Z,189.81
2023-05-14T02:03:54.374Z,187.72
2023-05-14T02:04:54.321Z,185.34
2023-05-14T02:05:54.307Z,189.18
2023-05-14T02:06:54.319Z,184.94
2023-05-14T02:07:54.326Z,186.69
2023-05-14T02:08:54.318Z,186.55
2023-05-14T02:09:54.300Z,187.42
2023-05-14T02:10:54.310Z,187.54
2023-05-14T02:11:54.312Z,188.57
2023-05-14T02:12:54.311Z,183.61
2023-05-14T02:13:54.301Z,188.54
2023-05-14T02:14:54.306Z,187.32
2023-05-14T02:15:54.329Z,181.85
2023-05-14T02:16:54.320Z,185.00
2023-05-14T02:17:54.350Z,182.56
2023-05-14T02:18:54.345Z,189.07
2023-05-14T02:19:54.324Z,183.72
2023-05-14T02:20:54.322Z,187.94
2023-05-14T02:21:54.292Z,182.51
2023-05-14T02:22:54.293Z,181.97
2023-05-14T02:23:54.295Z,181.82
2023-05-14T02:24:54.298Z,183.84
2023-05-14T02:25:54.297Z,180.87
2023-05-14T02:26:54.289Z,179.02
2023-05-14T02:27:54.303Z,180.02
2023-05-14T02:28:54.318Z,180.91
2023-05-14T02:29:54.309Z,179.42
2023-05-14T02:30:54.314Z,177.45
2023-05-14T02:31:54.377Z,179.64
2023-05-14T02:32:54.440Z,178.74
2023-05-14T02:33:54.313Z,179.43
2023-05-14T02:34:54.301Z,177.68
2023-05-14T02:35:54.287Z,177.69
2023-05-14T02:36:54.288Z,176.41
2023-05-14T02:37:54.304Z,178.48
2023-05-14T02:38:54.279Z,177.91
2023-05-14T02:39:54.282Z,175.14
2023-05-14T02:40:54.306Z,178.61
2023-05-14T02:41:54.278Z,176.16
2023-05-14T02:42:54.308Z,179.56
2023-05-14T02:43:54.310Z,176.18
2023-05-14T02:44:54.310Z,175.71
2023-05-14T02:45:54.305Z,174.41
2023-05-14T02:46:54.333Z,174.51
2023-05-14T02:47:54.330Z,174.54
2023-05-14T02:48:54.307Z,174.81
2023-05-14T02:49:54.312Z,175.57
2023-05-14T02:50:54.306Z,172.11
2023-05-14T02:51:54.312Z,174.87
2023-05-14T02:52:54.305Z,174.11
2023-05-14T02:53:54.307Z,173.50
2023-05-14T02:54:54.322Z,175.88
2023-05-14T02:55:54.306Z,174.23
2023-05-14T02:56:54.295Z,174.54
2023-05-14T02:57:54.311Z,175.40
2023-05-14T02:58:54.291Z,169.10
2023-05-14T02:59:54.305Z,172.45
2023-05-14T03:00:54.355Z,172.98
2023-05-14T03:01:54.312Z,172.77
2023-05-14T03:02:54.356Z,171.12
2023-05-14T03:03:54.337Z,170.00
2023-05-14T03:04:54.320Z,172.37
2023-05-14T03:05:54.324Z,171.84
2023-05-14T03:06:54.353Z,172.14
2023-05-14T03:07:54.326Z,167.91
2023-05-14T03:08:54.356Z,167.59
2023-05-14T03:09:54.346Z,170.34
2023-05-14T03:10:54.358Z,169.83
2023-05-14T03:11:54.354Z,170.14
2023-05-14T03:12:54.365Z,169.73
2023-05-14T03:13:54.363Z,172.84
2023-05-14T03:14:54.366Z,166.80
2023-05-14T03:15:54.372Z,170.85
2023-05-14T03:16:54.390Z,168.55
2023-05-14T03:17:54.463Z,170.75
2023-05-14T03:18:54.404Z,169.57
2023-05-14T03:19:54.395Z,167.68
2023-05-14T03:20:54.430Z,170.85
2023-05-14T03:21:54.389Z,167.62
2023-05-14T03:22:54.406Z,166.44
2023-05-14T03:23:54.419Z,166.90
2023-05-14T03:24:54.424Z,167.00
2023-05-14T03:25:54.441Z,165.17
2023-05-14T03:26:54.433Z,167.56
2023-05-14T03:27:54.445Z,168.54
2023-05-14T03:28:54.458Z,166.95
2023-05-14T03:29:54.453Z,166.00
2023-05-14T03:30:54.496Z,167.13
2023-05-14T03:31:54.480Z,165.80
2023-05-14T03:32:54.514Z,168.74
2023-05-14T03:33:54.482Z,167.38
2023-05-14T03:34:54.500Z,169.53
2023-05-14T03:35:54.502Z,166.33
2023-05-14T03:36:54.527Z,169.34
2023-05-14T03:37:54.533Z,170.07
2023-05-14T03:38:54.521Z,166.99
2023-05-14T03:39:54.524Z,165.53
2023-05-14T03:40:54.567Z,165.18
2023-05-14T03:41:54.527Z,164.99
2023-05-14T03:42:54.531Z,163.50
2023-05-14T03:43:54.558Z,164.98
2023-05-14T03:44:54.554Z,164.47
2023-05-14T03:45:54.567Z,166.07
2023-05-14T03:46:54.597Z,162.21
2023-05-14T03:47:54.647Z,164.85
2023-05-14T03:48:54.628Z,166.31
2023-05-14T03:49:54.609Z,163.48
2023-05-14T03:50:54.617Z,163.85
2023-05-14T03:51:54.633Z,162.90
2023-05-14T03:52:54.615Z,163.85
2023-05-14T03:53:54.619Z,165.84
2023-05-14T03:54:54.641Z,162.85
2023-05-14T03:55:54.646Z,166.15
2023-05-14T03:56:54.646Z,165.01
2023-05-14T03:57:54.669Z,160.36
2023-05-14T03:58:54.670Z,160.63
2023-05-14T03:59:54.663Z,158.98
2023-05-14T04:00:54.696Z,165.04
2023-05-14T04:01:54.698Z,163.65
2023-05-14T04:02:54.717Z,161.30
2023-05-14T04:03:54.786Z,161.22
2023-05-14T04:04:54.754Z,159.77
2023-05-14T04:05:54.724Z,160.15
2023-05-14T04:06:54.734Z,158.41
2023-05-14T04:07:54.733Z,157.79
2023-05-14T04:08:54.737Z,157.46
2023-05-14T04:09:54.743Z,163.67
2023-05-14T04:10:54.755Z,159.03
2023-05-14T04:11:54.782Z,155.15
2023-05-14T04:12:54.765Z,155.64
2023-05-14T04:13:54.784Z,157.45
2023-05-14T04:14:54.800Z,157.73
2023-05-14T04:15:54.834Z,159.92
2023-05-14T04:16:54.810Z,158.01
2023-05-14T04:17:54.827Z,159.71
2023-05-14T04:18:54.826Z,158.85
2023-05-14T04:19:54.811Z,156.29
2023-05-14T04:20:54.826Z,158.88
2023-05-14T04:21:54.835Z,159.67
2023-05-14T04:22:54.838Z,154.43
2023-05-14T04:23:54.847Z,153.74
2023-05-14T04:24:54.827Z,154.90
2023-05-14T04:25:54.856Z,156.64
2023-05-14T04:26:54.841Z,153.93
2023-05-14T04:27:54.852Z,155.04
2023-05-14T04:28:54.851Z,153.35
2023-05-14T04:29:54.853Z,156.18
2023-05-14T04:30:54.868Z,153.74
2023-05-14T04:31:54.883Z,153.79
2023-05-14T04:32:54.870Z,150.60
2023-05-14T04:33:54.915Z,153.46
2023-05-14T04:34:54.867Z,153.41
2023-05-14T04:35:54.892Z,154.30
2023-05-14T04:36:54.916Z,153.23
2023-05-14T04:37:54.882Z,150.56
2023-05-14T04:38:54.908Z,147.72
2023-05-14T04:39:54.897Z,152.31
2023-05-14T04:40:54.936Z,152.35
2023-05-14T04:41:54.927Z,148.56
2023-05-14T04:42:54.946Z,152.05
2023-05-14T04:43:54.943Z,151.20
2023-05-14T04:44:54.948Z,147.87
2023-05-14T04:45:54.992Z,145.81
2023-05-14T04:46:54.995Z,151.47
2023-05-14T04:47:55.115Z,152.84
2023-05-14T04:48:55.018Z,149.09
2023-05-14T04:49:55.021Z,148.66
2023-05-14T04:50:55.028Z,146.65
2023-05-14T04:51:55.038Z,144.06
2023-05-14T04:52:55.054Z,144.38
2023-05-14T04:53:55.067Z,149.95
2023-05-14T04:54:55.099Z,147.03
2023-05-14T04:55:55.111Z,144.12
2023-05-14T04:56:55.147Z,146.34
2023-05-14T04:57:55.128Z,146.81
2023-05-14T04:58:55.144Z,148.46
2023-05-14T04:59:55.170Z,147.06
2023-05-14T05:00:55.206Z,144.32
2023-05-14T05:01:55.162Z,141.71
2023-05-14T05:02:55.235Z,142.74
2023-05-14T05:03:55.223Z,144.83
2023-05-14T05:04:55.198Z,145.93
2023-05-14T05:05:55.200Z,142.80
2023-05-14T05:06:55.228Z,139.51
2023-05-14T05:07:55.224Z,143.15
2023-05-14T05:08:55.234Z,142.21
2023-05-14T05:09:55.232Z,143.09
2023-05-14T05:10:55.255Z,142.36
2023-05-14T05:11:55.272Z,140.08
2023-05-14T05:12:55.266Z,141.08
2023-05-14T05:13:55.278Z,141.27
2023-05-14T05:14:55.285Z,141.01
2023-05-14T05:15:55.306Z,142.00
2023-05-14T05:16:55.320Z,140.53
2023-05-14T05:17:55.368Z,138.54
2023-05-14T05:18:55.369Z,142.66
2023-05-14T05:19:55.343Z,138.15
2023-05-14T05:20:55.360Z,140.01
2023-05-14T05:21:55.357Z,135.72
2023-05-14T05:22:55.384Z,139.30
2023-05-14T05:23:55.389Z,135.17
2023-05-14T05:24:55.392Z,135.73
2023-05-14T05:25:55.426Z,138.22
2023-05-14T05:26:55.431Z,138.59
2023-05-14T05:27:55.433Z,135.27
2023-05-14T05:28:55.445Z,133.74
2023-05-14T05:29:55.452Z,131.51
2023-05-14T05:30:55.504Z,130.58
2023-05-14T05:31:55.585Z,136.49
2023-05-14T05:32:55.526Z,135.66
2023-05-14T05:33:55.491Z,133.95
2023-05-14T05:34:55.504Z,136.04
2023-05-14T05:35:55.517Z,131.93
2023-05-14T05:36:55.519Z,132.45
2023-05-14T05:37:55.521Z,131.70
2023-05-14T05:38:55.537Z,131.54
2023-05-14T05:39:55.545Z,133.44
2023-05-14T05:40:55.547Z,134.40
2023-05-14T05:41:55.532Z,131.50
2023-05-14T05:42:55.549Z,133.55
2023-05-14T05:43:55.561Z,135.83
2023-05-14T05:44:55.543Z,134.16
2023-05-14T05:45:55.556Z,135.82
2023-05-14T05:46:55.665Z,133.75
2023-05-14T05:47:55.613Z,133.74
2023-05-14T05:48:55.576Z,133.35
2023-05-14T05:49:55.553Z,133.09
2023-05-14T05:50:55.555Z,134.71
2023-05-14T05:51:55.577Z,134.38
2023-05-14T05:52:55.576Z,132.24
2023-05-14T05:53:55.551Z,135.50
2023-05-14T05:54:55.560Z,132.26
2023-05-14T05:55:55.561Z,134.00
2023-05-14T05:56:55.544Z,131.13
2023-05-14T05:57:55.558Z,126.66
2023-05-14T05:58:55.555Z,128.33
2023-05-14T05:59:55.552Z,127.81
2023-05-14T06:00:55.562Z,126.84
2023-05-14T06:01:55.604Z,125.25
2023-05-14T06:02:55.571Z,126.38
2023-05-14T06:03:55.560Z,126.42
2023-05-14T06:04:55.576Z,127.26
2023-05-14T06:05:55.548Z,126.64
2023-05-14T06:06:55.549Z,126.05
2023-05-14T06:07:55.556Z,131.45
2023-05-14T06:08:55.541Z,125.64
2023-05-14T06:09:55.555Z,126.37
2023-05-14T06:10:55.562Z,122.07
2023-05-14T06:11:55.558Z,123.68
2023-05-14T06:12:55.563Z,126.75
2023-05-14T06:13:55.572Z,124.39
2023-05-14T06:14:55.568Z,123.79
2023-05-14T06:15:55.565Z,123.99
2023-05-14T06:16:55.725Z,119.69
2023-05-14T06:17:55.631Z,124.23
2023-05-14T06:18:55.664Z,120.69
2023-05-14T06:19:55.575Z,123.75
2023-05-14T06:20:55.604Z,120.18
2023-05-14T06:21:55.597Z,115.75
2023-05-14T06:22:55.592Z,120.75
2023-05-14T06:23:55.609Z,116.07
2023-05-14T06:24:55.603Z,117.13
2023-05-14T06:25:55.614Z,115.93
2023-05-14T06:26:55.597Z,115.80
2023-05-14T06:27:55.613Z,116.25
2023-05-14T06:28:55.602Z,115.11
2023-05-14T06:29:55.605Z,114.34
2023-05-14T06:30:55.599Z,113.57
2023-05-14T06:31:55.609Z,115.48
2023-05-14T06:32:55.615Z,115.61
2023-05-14T06:33:55.609Z,114.30
2023-05-14T06:34:55.614Z,114.93
2023-05-14T06:35:55.614Z,113.66
2023-05-14T06:36:55.617Z,111.83
2023-05-14T06:37:55.605Z,111.66
2023-05-14T06:38:55.599Z,112.53
2023-05-14T06:39:57.666Z,113.29
2023-05-14T06:40:55.615Z,110.61
2023-05-14T06:41:55.608Z,108.39
2023-05-14T06:42:55.618Z,109.81
2023-05-14T06:43:55.604Z,110.74
2023-05-14T06:44:55.614Z,107.44
2023-05-14T06:45:55.625Z,105.79
2023-05-14T06:46:55.645Z,106.68
2023-05-14T06:47:55.748Z,107.81
2023-05-14T06:48:58.048Z,107.85
2023-05-14T06:49:55.660Z,111.77
2023-05-14T06:50:55.655Z,112.49
2023-05-14T06:51:55.641Z,110.52
2023-05-14T06:52:55.633Z,108.29
2023-05-14T06:53:55.606Z,104.15
2023-05-14T06:54:55.613Z,106.56
2023-05-14T06:55:55.608Z,106.51
2023-05-14T06:56:55.584Z,104.28
2023-05-14T06:57:55.580Z,106.53
2023-05-14T06:58:55.572Z,103.95
2023-05-14T06:59:55.579Z,103.56
2023-05-14T07:00:55.561Z,103.27
2023-05-14T07:01:55.586Z,102.55
2023-05-14T07:02:55.630Z,100.35
2023-05-14T07:03:55.564Z,100.27
2023-05-14T07:04:55.527Z,99.29
2023-05-14T07:05:55.548Z,99.20
2023-05-14T07:06:55.531Z,98.78
2023-05-14T07:07:55.528Z,97.65
2023-05-14T07:08:55.518Z,99.75
2023-05-14T07:09:55.506Z,98.21
2023-05-14T07:10:55.486Z,95.19
2023-05-14T07:11:55.483Z,97.66
2023-05-14T07:12:55.481Z,98.01
2023-05-14T07:13:55.495Z,98.78
2023-05-14T07:14:55.455Z,96.11
2023-05-14T07:15:55.469Z,97.09
2023-05-14T07:16:55.496Z,98.03
2023-05-14T07:17:55.623Z,96.55
2023-05-14T07:18:55.542Z,96.08
2023-05-14T07:19:55.442Z,97.14
2023-05-14T07:20:55.426Z,93.21
2023-05-14T07:21:55.420Z,89.58
2023-05-14T07:22:55.428Z,93.17
2023-05-14T07:23:55.401Z,95.35
2023-05-14T07:24:55.404Z,93.17
2023-05-14T07:25:55.401Z,91.31
2023-05-14T07:26:55.385Z,90.66
2023-05-14T07:27:55.387Z,89.57
2023-05-14T07:28:55.386Z,90.09
2023-05-14T07:29:55.375Z,93.06
2023-05-14T07:30:55.460Z,90.54
2023-05-14T07:31:55.471Z,93.11
2023-05-14T07:32:55.567Z,89.23
2023-05-14T07:33:55.582Z,90.85
2023-05-14T07:34:55.616Z,92.89
2023-05-14T07:35:55.680Z,87.36
2023-05-14T07:36:55.728Z,87.18
2023-05-14T07:37:55.764Z,86.21
2023-05-14T07:38:55.822Z,87.69
2023-05-14T07:39:55.867Z,84.69
2023-05-14T07:40:55.891Z,83.18
2023-05-14T07:41:55.953Z,82.03
2023-05-14T07:42:55.966Z,78.25
2023-05-14T07:43:55.999Z,78.45
2023-05-14T07:44:56.035Z,74.47
2023-05-14T07:45:56.065Z,72.98
2023-05-14T07:46:56.103Z,79.36
2023-05-14T07:47:56.214Z,75.50
2023-05-14T07:48:56.131Z,72.33
2023-05-14T07:49:56.157Z,69.32
2023-05-14T07:50:56.190Z,72.01
2023-05-14T07:51:56.196Z,73.24
2023-05-14T07:52:56.219Z,62.40
2023-05-14T07:53:56.229Z,58.65
2023-05-14T07:54:56.263Z,54.94
2023-05-14T07:55:56.276Z,59.43
2023-05-14T07:56:56.297Z,60.59
2023-05-14T07:57:56.305Z,62.69
2023-05-14T07:58:56.316Z,58.88
2023-05-14T07:59:56.327Z,62.11
2023-05-14T08:00:56.354Z,62.04
2023-05-14T08:01:56.409Z,59.67
2023-05-14T08:02:56.524Z,63.47
2023-05-14T08:03:56.485Z,66.51
2023-05-14T08:04:56.436Z,68.78
2023-05-14T08:05:56.444Z,67.39
2023-05-14T08:06:56.467Z,67.45
2023-05-14T08:07:56.478Z,62.11
2023-05-14T08:08:56.507Z,62.53
2023-05-14T08:09:56.530Z,61.03
2023-05-14T08:10:56.575Z,63.29
2023-05-14T08:11:56.551Z,62.69
2023-05-14T08:12:56.567Z,60.31
2023-05-14T08:13:56.587Z,57.25
2023-05-14T08:14:56.624Z,57.42
2023-05-14T08:15:56.624Z,55.50
2023-05-14T08:16:56.735Z,54.93
2023-05-14T08:17:56.717Z,55.93
2023-05-14T08:18:56.679Z,50.19
2023-05-14T08:19:56.721Z,48.85
2023-05-14T08:20:57.129Z,47.89
2023-05-14T08:21:56.816Z,47.57
2023-05-14T08:22:56.891Z,52.07
2023-05-14T08:23:56.885Z,50.31
2023-05-14T08:24:56.900Z,42.66
2023-05-14T08:25:56.890Z,40.15
2023-05-14T08:26:56.906Z,42.71
2023-05-14T08:27:56.917Z,41.96
2023-05-14T08:28:56.972Z,38.43
2023-05-14T08:29:56.963Z,39.16
2023-05-14T08:30:56.992Z,37.88
2023-05-14T08:31:57.006Z,32.67
2023-05-14T08:32:56.998Z,32.54
2023-05-14T08:33:56.979Z,38.07
2023-05-14T08:34:57.062Z,39.46
2023-05-14T08:35:57.169Z,33.48
2023-05-14T08:36:57.156Z,39.54
2023-05-14T08:37:57.165Z,34.52
2023-05-14T08:38:57.159Z,38.70
2023-05-14T08:39:57.147Z,40.61
2023-05-14T08:40:57.147Z,42.25
2023-05-14T08:41:57.202Z,42.45
2023-05-14T08:42:57.275Z,43.48
2023-05-14T08:43:57.401Z,43.36
2023-05-14T08:44:57.384Z,38.86
2023-05-14T08:45:57.374Z,42.86
2023-05-14T08:46:57.379Z,46.20
2023-05-14T08:47:57.432Z,47.05
2023-05-14T08:48:57.408Z,46.78
2023-05-14T08:49:57.385Z,50.12
2023-05-14T08:50:57.487Z,46.36
2023-05-14T08:51:57.562Z,43.18
2023-05-14T08:52:57.649Z,44.11
2023-05-14T08:53:57.667Z,40.62
2023-05-14T08:54:57.677Z,38.71
2023-05-14T08:55:57.734Z,42.31
2023-05-14T08:56:57.764Z,36.77
2023-05-14T08:57:57.801Z,37.08
2023-05-14T08:58:57.833Z,43.13
2023-05-14T08:59:57.908Z,43.25
2023-05-14T09:00:57.957Z,38.14
2023-05-14T09:01:58.063Z,44.41
2023-05-14T09:02:58.091Z,38.63
2023-05-14T09:03:58.170Z,38.93
2023-05-14T09:04:58.206Z,41.92
2023-05-14T09:06:00.128Z,39.79
2023-05-14T09:06:58.349Z,35.84
2023-05-14T09:07:58.374Z,38.18
2023-05-14T09:08:58.453Z,33.30
2023-05-14T09:09:58.495Z,33.47
2023-05-14T09:10:58.586Z,36.93
2023-05-14T09:11:58.633Z,30.19
2023-05-14T09:12:58.696Z,28.86
2023-05-14T09:13:58.763Z,31.23
2023-05-14T09:14:58.809Z,28.52
2023-05-14T09:15:58.910Z,33.39
2023-05-14T09:16:58.927Z,33.90
2023-05-14T09:17:59.010Z,36.83
2023-05-14T09:18:59.152Z,39.17
2023-05-14T09:19:59.114Z,34.40
2023-05-14T09:20:59.185Z,34.99
2023-05-14T09:21:59.296Z,39.95
2023-05-14T09:22:59.294Z,43.04
2023-05-14T09:23:59.360Z,50.47
2023-05-14T09:24:59.412Z,46.34
2023-05-14T09:25:59.483Z,47.98
2023-05-14T09:26:59.539Z,51.21
2023-05-14T09:27:59.590Z,50.03
2023-05-14T09:28:59.641Z,48.98
2023-05-14T09:29:59.687Z,50.58
2023-05-14T09:30:59.734Z,42.63
2023-05-14T09:31:59.878Z,41.63
2023-05-14T09:32:59.873Z,35.40
2023-05-14T09:33:59.894Z,38.72
2023-05-14T09:34:59.960Z,45.11
2023-05-14T09:36:00.004Z,45.22
2023-05-14T09:37:00.063Z,42.87
2023-05-14T09:38:00.171Z,41.37
2023-05-14T09:39:00.185Z,38.05
2023-05-14T09:40:00.258Z,40.75
2023-05-14T09:41:00.305Z,45.70
2023-05-14T09:42:00.349Z,47.22
2023-05-14T09:43:00.424Z,44.60
2023-05-14T09:44:00.489Z,36.93
2023-05-14T09:45:00.540Z,39.54
2023-05-14T09:46:00.604Z,45.33
2023-05-14T09:47:00.711Z,42.35
2023-05-14T09:48:00.795Z,42.53
2023-05-14T09:49:00.796Z,41.76
2023-05-14T09:50:00.856Z,38.93
2023-05-14T09:51:02.754Z,34.23
2023-05-14T09:52:00.897Z,33.04
2023-05-14T09:53:00.898Z,32.24
2023-05-14T09:54:00.876Z,32.51
2023-05-14T09:55:00.900Z,33.50
2023-05-14T09:56:00.883Z,33.23
2023-05-14T09:57:00.861Z,38.87
2023-05-14T09:58:00.857Z,39.15
2023-05-14T09:59:00.855Z,40.74
2023-05-14T10:00:00.842Z,34.63
2023-05-14T10:01:00.907Z,35.73
2023-05-14T10:02:00.849Z,38.04
2023-05-14T10:03:00.912Z,36.32
2023-05-14T10:04:00.851Z,33.53
2023-05-14T10:05:00.809Z,32.60
2023-05-14T10:06:00.800Z,31.51
2023-05-14T10:07:00.810Z,30.53
2023-05-14T10:08:00.793Z,26.87
2023-05-14T10:09:00.785Z,27.63
2023-05-14T10:10:00.782Z,28.29
2023-05-14T10:11:00.756Z,25.89
2023-05-14T10:12:00.762Z,25.73
2023-05-14T10:13:00.746Z,29.97
2023-05-14T10:14:00.751Z,29.18
2023-05-14T10:15:00.748Z,29.27
2023-05-14T10:16:00.744Z,31.67
2023-05-14T10:17:00.748Z,30.42
2023-05-14T10:18:00.782Z,30.05
2023-05-14T10:19:00.770Z,26.21
2023-05-14T10:20:00.718Z,30.43
2023-05-14T10:21:00.704Z,30.01
2023-05-14T10:22:00.690Z,29.41
2023-05-14T10:23:00.680Z,30.19
2023-05-14T10:24:00.685Z,33.71
2023-05-14T10:25:00.673Z,32.84
2023-05-14T10:26:00.657Z,37.33
2023-05-14T10:27:00.723Z,40.77
2023-05-14T10:28:00.789Z,39.92
2023-05-14T10:29:00.849Z,35.03
2023-05-14T10:30:00.911Z,41.38
2023-05-14T10:31:01.124Z,33.99
2023-05-14T10:32:01.021Z,42.68
2023-05-14T10:33:01.097Z,41.99
2023-05-14T10:34:01.145Z,40.59
2023-05-14T10:35:01.219Z,39.63
2023-05-14T10:36:01.309Z,36.91
2023-05-14T10:37:01.326Z,42.18
2023-05-14T10:38:01.401Z,39.31
2023-05-14T10:39:01.454Z,40.51
2023-05-14T10:40:01.529Z,36.74
2023-05-14T10:41:01.596Z,31.19
2023-05-14T10:42:01.662Z,33.98
2023-05-14T10:43:01.738Z,33.49
2023-05-14T10:44:01.775Z,26.60
2023-05-14T10:45:01.881Z,31.76
2023-05-14T10:46:01.899Z,34.96
2023-05-14T10:47:02.107Z,31.68
2023-05-14T10:48:02.063Z,35.58
2023-05-14T10:49:02.085Z,36.25
2023-05-14T10:50:02.187Z,36.76
2023-05-14T10:51:02.255Z,41.68
2023-05-14T10:52:02.280Z,35.68
2023-05-14T10:53:02.317Z,37.07
2023-05-14T10:54:02.341Z,34.58
2023-05-14T10:55:03.589Z,30.11
2023-05-14T10:56:02.444Z,29.56
2023-05-14T10:57:02.496Z,29.62
2023-05-14T10:58:02.550Z,22.79
2023-05-14T10:59:02.594Z,30.98
2023-05-14T11:00:02.694Z,36.89
2023-05-14T11:01:02.742Z,40.24
2023-05-14T11:02:02.796Z,32.63
2023-05-14T11:03:02.858Z,31.69
2023-05-14T11:04:02.934Z,33.57
2023-05-14T11:05:02.954Z,31.77
2023-05-14T11:06:03.021Z,28.99
2023-05-14T11:07:03.085Z,32.28
2023-05-14T11:08:03.161Z,29.63
2023-05-14T11:09:03.244Z,31.52
2023-05-14T11:10:03.266Z,31.12
2023-05-14T11:11:03.352Z,29.09
2023-05-14T11:12:03.396Z,25.00
2023-05-14T11:13:03.495Z,29.90
2023-05-14T11:14:03.543Z,29.78
2023-05-14T11:15:03.609Z,25.09
2023-05-14T11:16:15.006Z,31.20
2023-05-14T11:17:04.756Z,31.33
2023-05-14T11:18:03.683Z,31.48
2023-05-14T11:19:03.923Z,31.48
2023-05-14T11:20:03.644Z,33.78
2023-05-14T11:21:03.673Z,36.51
2023-05-14T11:22:03.633Z,33.00
2023-05-14T11:23:03.624Z,29.31
2023-05-14T11:24:03.625Z,31.50
2023-05-14T11:25:03.604Z,29.41
2023-05-14T11:26:03.764Z,31.95
2023-05-14T11:27:03.713Z,28.12
2023-05-14T11:28:03.768Z,28.31
2023-05-14T11:29:03.831Z,27.28
2023-05-14T11:30:03.890Z,33.43
2023-05-14T11:31:03.960Z,32.96
2023-05-14T11:32:04.100Z,35.56
2023-05-14T11:33:04.129Z,39.40
2023-05-14T11:34:04.123Z,37.71
2023-05-14T11:35:04.190Z,35.71
2023-05-14T11:36:04.248Z,36.09
2023-05-14T11:37:04.315Z,37.03
2023-05-14T11:38:04.379Z,39.61
2023-05-14T11:39:04.434Z,36.75
2023-05-14T11:40:04.495Z,36.25
2023-05-14T11:41:04.542Z,41.82
2023-05-14T11:42:04.570Z,44.15
2023-05-14T11:43:04.654Z,53.25
2023-05-14T11:44:05.075Z,52.62
2023-05-14T11:45:04.771Z,46.55
2023-05-14T11:46:04.795Z,37.92
2023-05-14T11:47:04.801Z,39.73
2023-05-14T11:48:04.829Z,43.07
2023-05-14T11:49:04.854Z,45.84
2023-05-14T11:50:05.970Z,45.77
2023-05-14T11:51:04.930Z,33.03
2023-05-14T11:52:04.968Z,25.00
2023-05-14T11:53:04.973Z,25.00
2023-05-14T11:54:04.964Z,27.11
2023-05-14T11:55:04.969Z,23.52
2023-05-14T11:56:05.682Z,25.00
2023-05-14T11:57:04.940Z,26.53
2023-05-14T11:58:04.954Z,29.17
2023-05-14T11:59:04.967Z,34.95
2023-05-14T12:00:05.004Z,46.09
2023-05-14T12:01:05.011Z,32.33
2023-05-14T12:02:05.034Z,27.89
2023-05-14T12:03:05.046Z,26.28
2023-05-14T12:04:05.094Z,35.86
2023-05-14T12:05:05.008Z,28.59
2023-05-14T12:06:05.060Z,29.50
2023-05-14T12:07:05.077Z,25.70
2023-05-14T12:08:05.081Z,29.34
2023-05-14T12:09:05.093Z,28.29
2023-05-14T12:10:05.070Z,37.82
2023-05-14T12:11:05.055Z,49.64
2023-05-14T12:12:05.099Z,44.26
2023-05-14T12:13:05.097Z,43.59
2023-05-14T12:14:05.102Z,44.87
2023-05-14T12:15:05.113Z,43.33
2023-05-14T12:16:05.163Z,41.41
2023-05-14T12:17:05.094Z,45.08
2023-05-14T12:18:13.676Z,45.56
2023-05-14T12:19:06.155Z,45.94
2023-05-14T12:20:05.101Z,49.15
2023-05-14T12:21:05.106Z,55.94
2023-05-14T12:22:05.093Z,65.46
2023-05-14T12:23:05.078Z,78.98
2023-05-14T12:24:05.099Z,88.66
2023-05-14T12:25:05.075Z,93.38
2023-05-14T12:26:05.072Z,93.07
2023-05-14T12:27:05.057Z,93.43
2023-05-14T12:28:05.049Z,85.92
2023-05-14T12:29:05.071Z,89.39
2023-05-14T12:30:19.109Z,94.48
2023-05-14T12:31:06.071Z,94.21
2023-05-14T12:32:05.021Z,84.70
2023-05-14T12:33:05.129Z,88.50
2023-05-14T12:34:05.022Z,89.17
2023-05-14T12:35:05.034Z,89.46
2023-05-14T12:36:14.017Z,86.29
2023-05-14T12:37:05.989Z,86.65
2023-05-14T12:38:05.029Z,87.26
2023-05-14T12:39:05.025Z,86.78
2023-05-14T12:40:04.974Z,76.95